Terminal Aerodrome Forecast
Issued by NWS Shreveport, LA

Home | Current Version | Previous Version | Text Only | Print | Product List | Glossary On
Versions: 1 2 3 4 5 6 7 8 9 10 11 12 13 14 15 16 17 18 19
086
FTUS44 KSHV 271748
TAFSHV
TAF
KSHV 271748Z 2718/2818 22012G18KT P6SM BKN040
      TEMPO 2720/2724 -SHRA OVC025
     FM280000 VRB04KT P6SM BKN050
     FM280700 VRB04KT P6SM BKN020
      TEMPO 2809/2813 3SM BR OVC010
     FM281600 17006KT P6SM BKN030=

USA.gov is the U.S. government's official web portal to all federal, state and local government web resources and services.